Spirit Of Vi — CFL2070 — position and weather

sailwx.info

Track history (hours):
 
Tides and Currents Weather Stations Pressure Air Temp Water Temp Dewpoint Dewpoint Depression Visibility Wind Speed Wind Dir Waves Ship Positions

Spirit Of Vi

Last reported at 2019-May-20 17:00 UTC. Time now 2019-May-20 17:29 UTC.
Position N 48°47' W 123°21'.

Length 167 m; draft 4.8 m.

Type: Passenger vessel. MMSI: 316001269.

Date/timePositionNaut miles runAvg speedWind from/ knotsBaromVisibWave heightAir tempDewpointWater temp
2019-May-20 17:00N 48°47' W 123°21'816.2
2019-May-20 16:30N 48°54' W 123°16'816.3
2019-May-20 16:00N 49°00' W 123°08'0 0.1
2019-May-20 15:30N 49°00' W 123°08'714.9
2019-May-20 15:00N 48°55' W 123°15'714.8
2019-May-20 14:30N 48°48' W 123°21'714.4
2019-May-20 14:00N 48°41' W 123°25'0 0.0
2019-May-20 13:30N 48°41' W 123°25'0 0.0
2019-May-20 12:45N 48°41' W 123°25'0 0.0
2019-May-20 12:30N 48°41' W 123°25'0 0.0
2019-May-20 12:00N 48°41' W 123°25'0 0.0
2019-May-20 11:27N 48°41' W 123°25'0 0.0
2019-May-20 10:33N 48°41' W 123°25'0 0.0
2019-May-20 10:30N 48°41' W 123°25'0 0.0
2019-May-20 10:00N 48°41' W 123°25'0 0.0
2019-May-20 09:24N 48°41' W 123°25'0 0.0
2019-May-20 08:51N 48°41' W 123°25'0 0.0
2019-May-20 08:27N 48°41' W 123°25'0 0.0
2019-May-20 07:48N 48°41' W 123°25'0 0.0
2019-May-20 07:27N 48°41' W 123°25'0 0.0
2019-May-20 06:36N 48°41' W 123°25'0 0.0
2019-May-20 06:21N 48°41' W 123°25'0 0.0
2019-May-20 06:00N 48°41' W 123°25'0 0.0
2019-May-20 05:30N 48°41' W 123°25'815.3
2019-May-20 05:00N 48°49' W 123°21'815.5
2019-May-20 04:30N 48°55' W 123°15'713.6
2019-May-20 04:00N 49°00' W 123°08'0 0.5
2019-May-20 03:31N 49°00' W 123°08'917.8
2019-May-20 03:00N 48°53' W 123°17'815.2
2019-May-20 02:30N 48°46' W 123°21'510.9
2019-May-20 02:00N 48°41' W 123°25'0 0.2
2019-May-20 01:30N 48°41' W 123°25'815.7
2019-May-20 01:00N 48°49' W 123°21'816.1
2019-May-20 00:30N 48°56' W 123°15'612.7
2019-May-20 00:00N 49°00' W 123°08'1 2.1
2019-May-19 23:31N 48°59' W 123°09'1020.1
2019-May-19 23:01N 48°52' W 123°19'815.0
2019-May-19 22:30N 48°45' W 123°23'4 7.2
2019-May-19 22:00N 48°41' W 123°25'0 0.0
2019-May-19 21:30N 48°41' W 123°25'713.9
2019-May-19 21:00N 48°48' W 123°21'714.7
2019-May-19 20:30N 48°55' W 123°16'815.9
2019-May-19 20:00N 49°00' W 123°08'0 0.0
2019-May-19 19:30N 49°00' W 123°08'815.5
2019-May-19 19:00N 48°54' W 123°15'714.1
2019-May-19 18:30N 48°48' W 123°20'714.3
2019-May-19 18:00N 48°41' W 123°25'0 0.0
2019-May-19 17:30N 48°41' W 123°25'713.4
2019-May-19 17:00N 48°48' W 123°21'815.5
2019-May-19 16:30N 48°55' W 123°16'815.7
2019-May-19 16:00N 49°00' W 123°08'0 0.1
2019-May-19 15:30N 49°00' W 123°08'715.0
2019-May-19 15:01N 48°55' W 123°15'714.5
2019-May-19 14:30N 48°48' W 123°21'714.6
2019-May-19 14:00N 48°41' W 123°25'0 0.0
2019-May-19 13:30N 48°41' W 123°25'0 0.0
2019-May-19 12:58N 48°41' W 123°25'0 0.0
2019-May-19 12:13N 48°41' W 123°25'0 0.0
2019-May-19 10:28N 48°41' W 123°25'0 0.0
2019-May-19 09:52N 48°41' W 123°25'0 0.0
2019-May-19 08:01N 48°41' W 123°25'0 0.0
2019-May-19 07:40N 48°41' W 123°25'0 0.0
2019-May-19 06:43N 48°41' W 123°25'0 0.0
2019-May-19 06:25N 48°41' W 123°25'0 0.1
2019-May-19 05:31N 48°41' W 123°25'0 3.3
2019-May-19 05:30N 48°41' W 123°25'917.0
2019-May-19 05:00N 48°50' W 123°21'815.7
2019-May-19 04:30N 48°56' W 123°14'611.9
2019-May-19 04:01N 49°00' W 123°08'1 2.9
2019-May-19 03:30N 48°59' W 123°09'1019.2
2019-May-19 03:00N 48°52' W 123°19'815.4
2019-May-19 02:30N 48°45' W 123°23'3 5.5
2019-May-19 01:53N 48°41' W 123°25'2 5.7
2019-May-19 01:31N 48°42' W 123°22'1019.1
2019-May-19 01:00N 48°52' W 123°21'918.7
2019-May-19 00:30N 48°59' W 123°11'3 5.3
2019-May-18 23:59N 49°00' W 123°08'0 0.4
2019-May-18 23:30N 49°00' W 123°08'918.0
2019-May-18 23:00N 48°53' W 123°17'815.3
2019-May-18 22:29N 48°46' W 123°21'510.2
2019-May-18 21:59N 48°41' W 123°25'0 1.0
2019-May-18 21:30N 48°42' W 123°24'816.9
2019-May-18 21:00N 48°50' W 123°21'612.6
2019-May-18 20:30N 48°55' W 123°16'715.0
2019-May-18 20:01N 49°00' W 123°08'0 0.0
2019-May-18 19:31N 49°00' W 123°08'714.8
2019-May-18 19:01N 48°55' W 123°15'814.9
2019-May-18 18:30N 48°48' W 123°21'714.0
2019-May-18 18:00N 48°41' W 123°25'0 0.1
2019-May-18 17:28N 48°41' W 123°25'714.6
2019-May-18 17:00N 48°48' W 123°21'815.5
2019-May-18 16:30N 48°55' W 123°16'815.5
2019-May-18 16:00N 49°00' W 123°08'0 0.0
2019-May-18 15:31N 49°00' W 123°08'816.0
2019-May-18 15:00N 48°54' W 123°16'815.0
2019-May-18 14:30N 48°48' W 123°21'713.4
2019-May-18 14:00N 48°41' W 123°25'0 0.0
2019-May-18 13:30N 48°41' W 123°25'0 0.0
2019-May-18 13:00N 48°41' W 123°25'0 0.0
2019-May-18 12:30N 48°41' W 123°25'0 0.0
2019-May-18 11:14N 48°41' W 123°25'0 0.0
2019-May-18 10:53N 48°41' W 123°25'0 0.0
2019-May-18 10:20N 48°41' W 123°25'0 0.0
2019-May-18 09:59N 48°41' W 123°25'0 0.0
2019-May-18 09:11N 48°41' W 123°25'0 0.0
2019-May-18 08:56N 48°41' W 123°25'0 0.0
2019-May-18 08:06N 48°41' W 123°25'0 0.0
2019-May-18 05:33N 48°41' W 123°25'0 3.3
2019-May-18 05:31N 48°41' W 123°25'816.3
2019-May-18 05:01N 48°49' W 123°21'713.5
2019-May-18 04:30N 48°55' W 123°16'714.8
2019-May-18 04:00N 49°00' W 123°08'0 0.3
2019-May-18 03:30N 49°00' W 123°08'815.4
2019-May-18 03:00N 48°54' W 123°15'815.1
2019-May-18 02:30N 48°48' W 123°21'713.4
2019-May-18 02:00N 48°41' W 123°25'0 0.2
2019-May-18 01:31N 48°41' W 123°25'815.9
2019-May-18 01:00N 48°49' W 123°21'816.7
2019-May-18 00:31N 48°56' W 123°14'611.7
2019-May-18 00:00N 49°00' W 123°08'0 0.8
2019-May-17 23:30N 49°00' W 123°08'1019.2
2019-May-17 23:00N 48°53' W 123°18'815.4
2019-May-17 22:30N 48°46' W 123°22'5 9.1
2019-May-17 22:00N 48°41' W 123°25'0 0.9
2019-May-17 21:31N 48°42' W 123°24'816.7
2019-May-17 21:00N 48°50' W 123°21'612.6
2019-May-17 20:30N 48°55' W 123°16'714.8
2019-May-17 20:00N 49°00' W 123°08'0 0.1
2019-May-17 19:31N 49°00' W 123°08'815.0
2019-May-17 19:00N 48°54' W 123°15'714.5
2019-May-17 18:30N 48°48' W 123°20'714.5
2019-May-17 18:00N 48°41' W 123°25'0 0.0
2019-May-17 17:30N 48°41' W 123°25'713.1
2019-May-17 17:00N 48°47' W 123°21'917.0
2019-May-17 16:30N 48°55' W 123°16'714.4
2019-May-17 16:00N 49°00' W 123°08'0 0.2
2019-May-17 15:30N 49°00' W 123°08'815.2
2019-May-17 15:00N 48°54' W 123°15'714.0
2019-May-17 14:30N 48°48' W 123°20'714.7
2019-May-17 14:00N 48°41' W 123°25'0 0.0
2019-May-17 13:30N 48°41' W 123°25'0 0.0
2019-May-17 13:00N 48°41' W 123°25'0 0.0
2019-May-17 12:30N 48°41' W 123°25'0 0.0
2019-May-17 12:00N 48°41' W 123°25'0 0.0
2019-May-17 11:27N 48°41' W 123°25'0 0.0
2019-May-17 11:00N 48°41' W 123°25'0 0.0
2019-May-17 10:30N 48°41' W 123°25'0 0.0
2019-May-17 10:00N 48°41' W 123°25'0 0.0
2019-May-17 09:27N 48°41' W 123°25'0 0.0
2019-May-17 07:33N 48°41' W 123°25'0 0.0
2019-May-17 07:27N 48°41' W 123°25'0 0.0
2019-May-17 06:54N 48°41' W 123°25'0 0.0
2019-May-17 06:21N 48°41' W 123°25'0 0.0
2019-May-17 06:00N 48°41' W 123°25'0 0.1
2019-May-17 05:30N 48°41' W 123°25'714.3
2019-May-17 05:00N 48°48' W 123°21'714.4
2019-May-17 04:30N 48°55' W 123°16'815.7
2019-May-17 04:00N 49°00' W 123°08'0 0.8
2019-May-17 03:30N 49°00' W 123°08'919.0
2019-May-17 03:00N 48°53' W 123°18'510.9
2019-May-17 02:30N 48°48' W 123°21'713.7
2019-May-17 02:00N 48°41' W 123°25'0 0.0
2019-May-17 01:30N 48°41' W 123°25'714.6
2019-May-17 01:00N 48°48' W 123°21'917.3
2019-May-17 00:30N 48°56' W 123°15'612.8
2019-May-17 00:00N 49°00' W 123°08'1 1.4
2019-May-16 23:31N 48°60' W 123°08'1019.4
2019-May-16 23:01N 48°52' W 123°18'816.6
2019-May-16 22:30N 48°45' W 123°23'3 6.9
2019-May-16 22:00N 48°41' W 123°25'0 0.2
2019-May-16 21:30N 48°41' W 123°25'815.9
2019-May-16 21:00N 48°49' W 123°21'815.8
2019-May-16 20:30N 48°56' W 123°15'612.7
2019-May-16 20:00N 49°00' W 123°08'0 0.1
2019-May-16 19:31N 49°00' W 123°08'714.1
2019-May-16 19:00N 48°55' W 123°15'816.3
2019-May-16 18:30N 48°48' W 123°21'713.6
2019-May-16 18:00N 48°41' W 123°25'0 0.0
2019-May-16 17:30N 48°41' W 123°25'713.5
2019-May-16 17:00N 48°48' W 123°21'816.9
2019-May-16 16:30N 48°55' W 123°15'714.0
2019-May-16 16:01N 49°00' W 123°08'0 0.2
2019-May-16 15:31N 49°00' W 123°08'816.1
2019-May-16 15:01N 48°54' W 123°16'714.3
2019-May-16 14:31N 48°48' W 123°21'713.5
2019-May-16 14:00N 48°41' W 123°25'0 0.0
2019-May-16 13:30N 48°41' W 123°25'0 0.0
2019-May-16 12:58N 48°41' W 123°25'0 0.0
2019-May-16 12:28N 48°41' W 123°25'0 0.0
2019-May-16 11:58N 48°41' W 123°25'0 0.0
2019-May-16 11:28N 48°41' W 123°25'0 0.0
2019-May-16 10:58N 48°41' W 123°25'0 0.0
2019-May-16 10:28N 48°41' W 123°25'0 0.0
2019-May-16 09:58N 48°41' W 123°25'0 0.0
2019-May-16 09:28N 48°41' W 123°25'0 0.0
2019-May-16 08:58N 48°41' W 123°25'0 0.0
2019-May-16 08:25N 48°41' W 123°25'0 0.0
2019-May-16 07:58N 48°41' W 123°25'0 0.0
2019-May-16 07:28N 48°41' W 123°25'0 0.0
2019-May-16 06:55N 48°41' W 123°25'0 0.0
2019-May-16 06:28N 48°41' W 123°25'0 0.0
2019-May-16 06:00N 48°41' W 123°25'4 7.6
2019-May-16 05:30N 48°44' W 123°21'815.4
2019-May-16 05:01N 48°52' W 123°19'918.6
2019-May-16 04:30N 48°59' W 123°10'2 3.8
2019-May-16 04:00N 49°00' W 123°08'612.2
2019-May-16 03:30N 48°56' W 123°14'815.0
2019-May-16 03:00N 48°50' W 123°20'816.6
2019-May-16 02:31N 48°42' W 123°25'1 1.3
2019-May-16 02:00N 48°41' W 123°25'4 8.2
2019-May-16 01:31N 48°44' W 123°21'816.7
2019-May-16 01:01N 48°53' W 123°18'1019.7
2019-May-16 00:31N 49°00' W 123°08'0 0.7
2019-May-16 00:00N 49°00' W 123°08'511.0
2019-May-15 23:31N 48°56' W 123°13'816.1
2019-May-15 23:01N 48°50' W 123°21'816.8
2019-May-15 22:30N 48°42' W 123°26'1 1.7
2019-May-15 22:00N 48°41' W 123°25'4 7.9
2019-May-15 21:30N 48°44' W 123°21'815.7
2019-May-15 21:01N 48°52' W 123°18'816.4
2019-May-15 20:30N 48°59' W 123°12'3 5.9
2019-May-15 20:00N 49°00' W 123°08'2 3.6
2019-May-15 19:30N 48°59' W 123°09'1019.7
2019-May-15 19:00N 48°51' W 123°20'714.9
2019-May-15 18:31N 48°45' W 123°23'3 6.5
2019-May-15 18:00N 48°41' W 123°25'2 3.4
2019-May-15 17:30N 48°42' W 123°22'1019.4
2019-May-15 17:01N 48°51' W 123°21'815.1
2019-May-15 16:30N 48°57' W 123°13'5 9.6
2019-May-15 16:00N 49°00' W 123°08'0 0.5
2019-May-15 15:30N 49°00' W 123°08'918.5
2019-May-15 15:00N 48°53' W 123°17'612.8
2019-May-15 14:30N 48°47' W 123°21'612.5
2019-May-15 14:00N 48°41' W 123°25'0 0.0
2019-May-15 13:26N 48°41' W 123°25'0 0.0
2019-May-15 12:56N 48°41' W 123°25'0 0.0
2019-May-15 12:26N 48°41' W 123°25'0 0.0
2019-May-15 11:56N 48°41' W 123°25'0 0.0
2019-May-15 11:26N 48°41' W 123°25'0 0.0
2019-May-15 10:56N 48°41' W 123°25'0 0.0
2019-May-15 10:26N 48°41' W 123°25'0 0.0
2019-May-15 09:56N 48°41' W 123°25'0 0.0
2019-May-15 09:28N 48°41' W 123°25'0 0.0
2019-May-15 08:58N 48°41' W 123°25'0 0.0
2019-May-15 08:28N 48°41' W 123°25'0 0.0
2019-May-15 07:58N 48°41' W 123°25'0 0.0
2019-May-15 07:28N 48°41' W 123°25'0 0.0
2019-May-15 06:55N 48°41' W 123°25'0 0.0
2019-May-15 06:28N 48°41' W 123°25'0 0.0
2019-May-15 05:58N 48°41' W 123°25'3 6.0
2019-May-15 05:31N 48°43' W 123°21'917.7
2019-May-15 05:00N 48°52' W 123°20'918.6
2019-May-15 04:30N 48°59' W 123°11'2 4.8
2019-May-15 04:00N 49°00' W 123°08'510.6
2019-May-15 03:30N 48°56' W 123°13'816.7
2019-May-15 03:00N 48°49' W 123°20'816.1
2019-May-15 02:29N 48°42' W 123°25'0 0.8
2019-May-15 02:00N 48°41' W 123°25'2 4.7
2019-May-15 01:31N 48°42' W 123°22'918.8
2019-May-15 01:01N 48°52' W 123°20'713.9
2019-May-15 00:30N 48°57' W 123°13'5 9.5
2019-May-15 00:00N 49°00' W 123°08'0 0.3
2019-May-14 23:30N 49°00' W 123°08'918.9
2019-May-14 23:00N 48°53' W 123°17'815.4
2019-May-14 22:30N 48°46' W 123°22'5 9.8
2019-May-14 22:00N 48°41' W 123°25'0 0.3
2019-May-14 21:30N 48°41' W 123°25'815.8
2019-May-14 21:00N 48°49' W 123°21'816.7
2019-May-14 20:30N 48°57' W 123°16'612.7
2019-May-14 20:00N 49°00' W 123°08'0 0.2
2019-May-14 19:30N 49°00' W 123°08'917.5
2019-May-14 19:00N 48°54' W 123°17'816.5
2019-May-14 18:30N 48°46' W 123°21'510.3
2019-May-14 18:00N 48°41' W 123°25'0 0.5
2019-May-14 17:30N 48°41' W 123°24'816.8
2019-May-14 17:01N 48°49' W 123°21'815.9
2019-May-14 16:30N 48°56' W 123°14'611.7
2019-May-14 16:00N 49°00' W 123°08'0 0.0
2019-May-14 15:30N 49°00' W 123°08'815.2
2019-May-14 15:00N 48°55' W 123°15'815.1
2019-May-14 14:31N 48°48' W 123°21'714.0
2019-May-14 14:00N 48°41' W 123°25'0 0.0
2019-May-14 13:30N 48°41' W 123°25'0 0.0
2019-May-14 13:00N 48°41' W 123°25'0 0.0
2019-May-14 12:30N 48°41' W 123°25'0 0.0
2019-May-14 11:59N 48°41' W 123°25'0 0.0
2019-May-14 11:26N 48°41' W 123°25'0 0.0
2019-May-14 10:59N 48°41' W 123°25'0 0.0
2019-May-14 10:29N 48°41' W 123°25'0 0.0
2019-May-14 09:59N 48°41' W 123°25'0 0.0
2019-May-14 09:29N 48°41' W 123°25'0 0.0
2019-May-14 08:53N 48°41' W 123°25'0 0.0
2019-May-14 08:23N 48°41' W 123°25'0 0.0
2019-May-14 07:56N 48°41' W 123°25'0 0.0
2019-May-14 06:41N 48°41' W 123°25'0 0.0
2019-May-14 06:29N 48°41' W 123°25'0 0.0
2019-May-14 05:59N 48°41' W 123°25'0 0.0
2019-May-14 05:30N 48°41' W 123°25'612.6
2019-May-14 05:00N 48°47' W 123°21'815.4
2019-May-14 04:30N 48°54' W 123°17'816.6
2019-May-14 04:00N 49°00' W 123°08'0 0.0
2019-May-14 03:30N 49°00' W 123°08'816.4
2019-May-14 03:00N 48°54' W 123°16'816.6
2019-May-14 02:30N 48°47' W 123°21'611.2
2019-May-14 02:00N 48°41' W 123°25'1 2.1
2019-May-14 01:28N 48°42' W 123°23'918.8
2019-May-14 01:00N 48°50' W 123°21'815.3
2019-May-14 00:31N 48°56' W 123°14'611.4
2019-May-14 00:00N 49°00' W 123°08'0 0.2
2019-May-13 23:30N 49°00' W 123°08'918.5
2019-May-13 23:01N 48°53' W 123°17'815.4
2019-May-13 22:31N 48°46' W 123°21'510.3
2019-May-13 22:00N 48°41' W 123°25'0 0.2
2019-May-13 21:30N 48°41' W 123°25'815.4
2019-May-13 21:00N 48°49' W 123°21'714.6
2019-May-13 20:30N 48°55' W 123°16'714.6
2019-May-13 20:00N 49°00' W 123°08'0 0.1
2019-May-13 19:30N 49°00' W 123°08'714.6
2019-May-13 19:00N 48°55' W 123°15'917.0
2019-May-13 18:30N 48°47' W 123°21'612.7
2019-May-13 18:00N 48°41' W 123°25'0 0.0
2019-May-13 17:30N 48°41' W 123°25'713.8
2019-May-13 17:00N 48°48' W 123°21'815.9
2019-May-13 16:30N 48°55' W 123°16'815.0
2019-May-13 16:00N 49°00' W 123°08'0 0.0
2019-May-13 15:30N 49°00' W 123°08'816.3
2019-May-13 15:00N 48°54' W 123°16'815.4
2019-May-13 14:30N 48°47' W 123°20'612.7
2019-May-13 14:00N 48°41' W 123°25'0 0.0
2019-May-13 13:30N 48°41' W 123°25'0 0.0
2019-May-13 12:55N 48°41' W 123°25'0 0.0
2019-May-13 12:28N 48°41' W 123°25'0 0.0
2019-May-13 11:49N 48°41' W 123°25'0 0.0
2019-May-13 11:25N 48°41' W 123°25'0 0.0
2019-May-13 10:55N 48°41' W 123°25'0 0.0
2019-May-13 10:19N 48°41' W 123°25'0 0.0
2019-May-13 09:58N 48°41' W 123°25'0 0.0
2019-May-13 09:25N 48°41' W 123°25'0 0.0
2019-May-13 08:49N 48°41' W 123°25'0 0.0
2019-May-13 08:19N 48°41' W 123°25'0 0.0
2019-May-13 07:58N 48°41' W 123°25'0 0.0
2019-May-13 07:19N 48°41' W 123°25'0 0.0
2019-May-13 06:58N 48°41' W 123°25'0 0.0
2019-May-13 06:25N 48°41' W 123°25'0 0.0
2019-May-13 05:58N 48°41' W 123°25'0 0.0
2019-May-13 05:30N 48°41' W 123°25'612.3
2019-May-13 05:00N 48°47' W 123°21'815.5
2019-May-13 04:30N 48°54' W 123°17'816.9
2019-May-13 04:00N 49°00' W 123°08'0 0.1
2019-May-13 03:30N 49°00' W 123°08'816.1
2019-May-13 03:00N 48°54' W 123°16'714.9
2019-May-13 02:30N 48°47' W 123°21'713.3
2019-May-13 02:00N 48°41' W 123°25'0 0.0
2019-May-13 01:31N 48°41' W 123°25'815.1
2019-May-13 01:00N 48°49' W 123°21'815.8
2019-May-13 00:31N 48°55' W 123°15'713.4
2019-May-13 00:00N 49°00' W 123°08'0 0.0
2019-May-12 23:30N 49°00' W 123°08'816.5
2019-May-12 23:00N 48°54' W 123°16'714.8
2019-May-12 22:31N 48°47' W 123°21'613.0
2019-May-12 22:01N 48°41' W 123°25'0 0.0
2019-May-12 21:30N 48°41' W 123°25'713.4
2019-May-12 21:00N 48°48' W 123°21'917.3
2019-May-12 20:30N 48°55' W 123°15'713.7
2019-May-12 20:00N 49°00' W 123°08'0 0.2
2019-May-12 19:30N 49°00' W 123°08'918.6
2019-May-12 19:00N 48°53' W 123°17'816.3
2019-May-12 18:31N 48°46' W 123°22'5 9.4
2019-May-12 18:00N 48°41' W 123°25'0 0.2
2019-May-12 17:30N 48°41' W 123°25'815.8
2019-May-12 17:00N 48°49' W 123°21'713.8
2019-May-12 16:30N 48°55' W 123°16'714.8
2019-May-12 16:01N 49°00' W 123°08'0 0.0
2019-May-12 15:31N 49°00' W 123°08'714.2
2019-May-12 15:00N 48°55' W 123°15'816.0
2019-May-12 14:30N 48°48' W 123°21'714.0
2019-May-12 14:00N 48°41' W 123°25'0 0.0
2019-May-12 13:30N 48°41' W 123°25'0 0.0
2019-May-12 13:00N 48°41' W 123°25'0 0.0
2019-May-12 12:30N 48°41' W 123°25'0 0.0
2019-May-12 11:56N 48°41' W 123°25'0 0.0
2019-May-12 11:26N 48°41' W 123°25'0 0.0
2019-May-12 10:56N 48°41' W 123°25'0 0.0
2019-May-12 10:26N 48°41' W 123°25'0 0.0
2019-May-12 09:56N 48°41' W 123°25'0 0.0
2019-May-12 09:26N 48°41' W 123°25'0 0.0
2019-May-12 08:56N 48°41' W 123°25'0 0.0
2019-May-12 08:26N 48°41' W 123°25'0 0.0
2019-May-12 07:56N 48°41' W 123°25'0 0.0
2019-May-12 07:26N 48°41' W 123°25'0 0.0
2019-May-12 06:56N 48°41' W 123°25'0 0.0
2019-May-12 06:26N 48°41' W 123°25'0 0.0
2019-May-12 05:56N 48°41' W 123°25'0 0.0
2019-May-12 05:28N 48°41' W 123°25'612.2
2019-May-12 05:00N 48°46' W 123°21'815.9
2019-May-12 04:30N 48°54' W 123°17'917.6
2019-May-12 04:00N 49°00' W 123°08'0 0.1
2019-May-12 03:30N 49°00' W 123°08'612.1
2019-May-12 03:00N 48°56' W 123°14'917.2
2019-May-12 02:30N 48°49' W 123°21'815.2
2019-May-12 02:00N 48°41' W 123°25'0 0.0
2019-May-12 01:30N 48°41' W 123°25'713.7
2019-May-12 01:01N 48°48' W 123°21'815.7
2019-May-12 00:31N 48°55' W 123°16'815.4
2019-May-12 00:00N 49°00' W 123°08'0 0.1
2019-May-11 23:30N 49°00' W 123°08'815.8
2019-May-11 23:00N 48°54' W 123°15'815.2
2019-May-11 22:30N 48°48' W 123°21'713.4
2019-May-11 22:00N 48°41' W 123°25'0 0.0
2019-May-11 21:30N 48°41' W 123°25'714.4
2019-May-11 21:00N 48°48' W 123°20'714.8
2019-May-11 20:30N 48°55' W 123°16'815.2
2019-May-11 20:00N 49°00' W 123°08'0 0.0
2019-May-11 19:30N 49°00' W 123°08'714.1
2019-May-11 19:00N 48°55' W 123°15'815.5
2019-May-11 18:30N 48°48' W 123°21'714.7
2019-May-11 18:00N 48°41' W 123°25'0 0.0
2019-May-11 17:30N 48°41' W 123°25'713.2
2019-May-11 17:00N 48°47' W 123°21'815.5
2019-May-11 16:30N 48°55' W 123°16'816.0
2019-May-11 16:00N 49°00' W 123°08'0 0.1
2019-May-11 15:31N 49°00' W 123°08'714.3
2019-May-11 15:00N 48°55' W 123°16'816.8
2019-May-11 14:30N 48°48' W 123°21'713.2
2019-May-11 14:00N 48°41' W 123°25'0 0.0
2019-May-11 13:30N 48°41' W 123°25'0 0.0
2019-May-11 12:39N 48°41' W 123°25'0 0.0
2019-May-11 12:24N 48°41' W 123°25'0 0.0
2019-May-11 11:18N 48°41' W 123°25'0 0.0
2019-May-11 11:00N 48°41' W 123°25'0 0.0
2019-May-11 10:30N 48°41' W 123°25'0 0.0
2019-May-11 09:57N 48°41' W 123°25'0 0.0
2019-May-11 09:18N 48°41' W 123°25'0 0.0
2019-May-11 08:24N 48°41' W 123°25'0 0.0
2019-May-11 07:24N 48°41' W 123°25'0 0.0
2019-May-11 07:00N 48°41' W 123°25'0 0.0
2019-May-11 06:30N 48°41' W 123°25'0 0.0
2019-May-11 05:48N 48°41' W 123°25'0 0.0
2019-May-11 05:30N 48°41' W 123°25'612.6
2019-May-11 05:01N 48°47' W 123°21'815.2
2019-May-11 04:31N 48°54' W 123°17'917.1
2019-May-11 04:00N 49°00' W 123°08'0 0.0
2019-May-11 03:30N 49°00' W 123°08'714.5
2019-May-11 03:00N 48°55' W 123°15'917.4
2019-May-11 02:31N 48°47' W 123°21'612.3
2019-May-11 02:00N 48°41' W 123°25'1 1.5
2019-May-11 01:28N 48°42' W 123°24'817.8
2019-May-11 01:00N 48°49' W 123°21'714.9
2019-May-11 00:30N 48°56' W 123°15'612.8
2019-May-11 00:00N 49°00' W 123°08'0 0.2
2019-May-10 23:30N 49°00' W 123°08'917.7
2019-May-10 23:01N 48°53' W 123°17'815.4
2019-May-10 22:30N 48°46' W 123°21'510.9
2019-May-10 22:00N 48°41' W 123°25'0 0.2
2019-May-10 21:31N 48°41' W 123°25'816.4
2019-May-10 21:01N 48°49' W 123°21'917.6
2019-May-10 20:30N 48°57' W 123°14'510.8
2019-May-10 20:01N 49°00' W 123°08'0 0.4
2019-May-10 19:31N 49°00' W 123°08'917.8
2019-May-10 19:00N 48°53' W 123°17'713.7
2019-May-10 18:30N 48°47' W 123°21'612.4
2019-May-10 18:00N 48°41' W 123°25'0 0.0
2019-May-10 17:30N 48°41' W 123°25'714.1
2019-May-10 17:00N 48°48' W 123°21'  
Track history (hours):
 
Tides and Currents Weather Stations Pressure Air Temp Water Temp Dewpoint Dewpoint Depression Visibility Wind Speed Wind Dir Waves Ship Positions

Spirit Of Vi

Last reported at 2019-May-20 17:00 UTC. Time now 2019-May-20 17:29 UTC.
Position N 48°47' W 123°21'.

Length 167 m; draft 4.8 m.

Type: Passenger vessel. MMSI: 316001269.

Date/timePositionNaut miles runAvg speedWind from/ knotsBaromVisibWave heightAir tempDewpointWater temp
2019-May-20 17:00N 48°47' W 123°21'816.2
2019-May-20 16:30N 48°54' W 123°16'816.3
2019-May-20 16:00N 49°00' W 123°08'0 0.1
2019-May-20 15:30N 49°00' W 123°08'714.9
2019-May-20 15:00N 48°55' W 123°15'714.8
2019-May-20 14:30N 48°48' W 123°21'714.4
2019-May-20 14:00N 48°41' W 123°25'0 0.0
2019-May-20 13:30N 48°41' W 123°25'0 0.0
2019-May-20 12:45N 48°41' W 123°25'0 0.0
2019-May-20 12:30N 48°41' W 123°25'0 0.0
2019-May-20 12:00N 48°41' W 123°25'0 0.0
2019-May-20 11:27N 48°41' W 123°25'0 0.0
2019-May-20 10:33N 48°41' W 123°25'0 0.0
2019-May-20 10:30N 48°41' W 123°25'0 0.0
2019-May-20 10:00N 48°41' W 123°25'0 0.0
2019-May-20 09:24N 48°41' W 123°25'0 0.0
2019-May-20 08:51N 48°41' W 123°25'0 0.0
2019-May-20 08:27N 48°41' W 123°25'0 0.0
2019-May-20 07:48N 48°41' W 123°25'0 0.0
2019-May-20 07:27N 48°41' W 123°25'0 0.0
2019-May-20 06:36N 48°41' W 123°25'0 0.0
2019-May-20 06:21N 48°41' W 123°25'0 0.0
2019-May-20 06:00N 48°41' W 123°25'0 0.0
2019-May-20 05:30N 48°41' W 123°25'815.3
2019-May-20 05:00N 48°49' W 123°21'815.5
2019-May-20 04:30N 48°55' W 123°15'713.6
2019-May-20 04:00N 49°00' W 123°08'0 0.5
2019-May-20 03:31N 49°00' W 123°08'917.8
2019-May-20 03:00N 48°53' W 123°17'815.2
2019-May-20 02:30N 48°46' W 123°21'510.9
2019-May-20 02:00N 48°41' W 123°25'0 0.2
2019-May-20 01:30N 48°41' W 123°25'815.7
2019-May-20 01:00N 48°49' W 123°21'816.1
2019-May-20 00:30N 48°56' W 123°15'612.7
2019-May-20 00:00N 49°00' W 123°08'1 2.1
2019-May-19 23:31N 48°59' W 123°09'1020.1
2019-May-19 23:01N 48°52' W 123°19'815.0
2019-May-19 22:30N 48°45' W 123°23'4 7.2
2019-May-19 22:00N 48°41' W 123°25'0 0.0
2019-May-19 21:30N 48°41' W 123°25'713.9
2019-May-19 21:00N 48°48' W 123°21'714.7
2019-May-19 20:30N 48°55' W 123°16'815.9
2019-May-19 20:00N 49°00' W 123°08'0 0.0
2019-May-19 19:30N 49°00' W 123°08'815.5
2019-May-19 19:00N 48°54' W 123°15'714.1
2019-May-19 18:30N 48°48' W 123°20'714.3
2019-May-19 18:00N 48°41' W 123°25'0 0.0
2019-May-19 17:30N 48°41' W 123°25'713.4
2019-May-19 17:00N 48°48' W 123°21'815.5
2019-May-19 16:30N 48°55' W 123°16'815.7
2019-May-19 16:00N 49°00' W 123°08'0 0.1
2019-May-19 15:30N 49°00' W 123°08'715.0
2019-May-19 15:01N 48°55' W 123°15'714.5
2019-May-19 14:30N 48°48' W 123°21'714.6
2019-May-19 14:00N 48°41' W 123°25'0 0.0
2019-May-19 13:30N 48°41' W 123°25'0 0.0
2019-May-19 12:58N 48°41' W 123°25'0 0.0
2019-May-19 12:13N 48°41' W 123°25'0 0.0
2019-May-19 10:28N 48°41' W 123°25'0 0.0
2019-May-19 09:52N 48°41' W 123°25'0 0.0
2019-May-19 08:01N 48°41' W 123°25'0 0.0
2019-May-19 07:40N 48°41' W 123°25'0 0.0
2019-May-19 06:43N 48°41' W 123°25'0 0.0
2019-May-19 06:25N 48°41' W 123°25'0 0.1
2019-May-19 05:31N 48°41' W 123°25'0 3.3
2019-May-19 05:30N 48°41' W 123°25'917.0
2019-May-19 05:00N 48°50' W 123°21'815.7
2019-May-19 04:30N 48°56' W 123°14'611.9
2019-May-19 04:01N 49°00' W 123°08'1 2.9
2019-May-19 03:30N 48°59' W 123°09'1019.2
2019-May-19 03:00N 48°52' W 123°19'815.4
2019-May-19 02:30N 48°45' W 123°23'3 5.5
2019-May-19 01:53N 48°41' W 123°25'2 5.7
2019-May-19 01:31N 48°42' W 123°22'1019.1
2019-May-19 01:00N 48°52' W 123°21'918.7
2019-May-19 00:30N 48°59' W 123°11'3 5.3
2019-May-18 23:59N 49°00' W 123°08'0 0.4
2019-May-18 23:30N 49°00' W 123°08'918.0
2019-May-18 23:00N 48°53' W 123°17'815.3
2019-May-18 22:29N 48°46' W 123°21'510.2
2019-May-18 21:59N 48°41' W 123°25'0 1.0
2019-May-18 21:30N 48°42' W 123°24'816.9
2019-May-18 21:00N 48°50' W 123°21'612.6
2019-May-18 20:30N 48°55' W 123°16'715.0
2019-May-18 20:01N 49°00' W 123°08'0 0.0
2019-May-18 19:31N 49°00' W 123°08'714.8
2019-May-18 19:01N 48°55' W 123°15'814.9
2019-May-18 18:30N 48°48' W 123°21'714.0
2019-May-18 18:00N 48°41' W 123°25'0 0.1
2019-May-18 17:28N 48°41' W 123°25'714.6
2019-May-18 17:00N 48°48' W 123°21'815.5
2019-May-18 16:30N 48°55' W 123°16'815.5
2019-May-18 16:00N 49°00' W 123°08'0 0.0
2019-May-18 15:31N 49°00' W 123°08'816.0
2019-May-18 15:00N 48°54' W 123°16'815.0
2019-May-18 14:30N 48°48' W 123°21'713.4
2019-May-18 14:00N 48°41' W 123°25'0 0.0
2019-May-18 13:30N 48°41' W 123°25'0 0.0
2019-May-18 13:00N 48°41' W 123°25'0 0.0
2019-May-18 12:30N 48°41' W 123°25'0 0.0
2019-May-18 11:14N 48°41' W 123°25'0 0.0
2019-May-18 10:53N 48°41' W 123°25'0 0.0
2019-May-18 10:20N 48°41' W 123°25'0 0.0
2019-May-18 09:59N 48°41' W 123°25'0 0.0
2019-May-18 09:11N 48°41' W 123°25'0 0.0
2019-May-18 08:56N 48°41' W 123°25'0 0.0
2019-May-18 08:06N 48°41' W 123°25'0 0.0
2019-May-18 05:33N 48°41' W 123°25'0 3.3
2019-May-18 05:31N 48°41' W 123°25'816.3
2019-May-18 05:01N 48°49' W 123°21'713.5
2019-May-18 04:30N 48°55' W 123°16'714.8
2019-May-18 04:00N 49°00' W 123°08'0 0.3
2019-May-18 03:30N 49°00' W 123°08'815.4
2019-May-18 03:00N 48°54' W 123°15'815.1
2019-May-18 02:30N 48°48' W 123°21'713.4
2019-May-18 02:00N 48°41' W 123°25'0 0.2
2019-May-18 01:31N 48°41' W 123°25'815.9
2019-May-18 01:00N 48°49' W 123°21'816.7
2019-May-18 00:31N 48°56' W 123°14'611.7
2019-May-18 00:00N 49°00' W 123°08'0 0.8
2019-May-17 23:30N 49°00' W 123°08'1019.2
2019-May-17 23:00N 48°53' W 123°18'815.4
2019-May-17 22:30N 48°46' W 123°22'5 9.1
2019-May-17 22:00N 48°41' W 123°25'0 0.9
2019-May-17 21:31N 48°42' W 123°24'816.7
2019-May-17 21:00N 48°50' W 123°21'612.6
2019-May-17 20:30N 48°55' W 123°16'714.8
2019-May-17 20:00N 49°00' W 123°08'0 0.1
2019-May-17 19:31N 49°00' W 123°08'815.0
2019-May-17 19:00N 48°54' W 123°15'714.5
2019-May-17 18:30N 48°48' W 123°20'714.5
2019-May-17 18:00N 48°41' W 123°25'0 0.0
2019-May-17 17:30N 48°41' W 123°25'713.1
2019-May-17 17:00N 48°47' W 123°21'917.0
2019-May-17 16:30N 48°55' W 123°16'714.4
2019-May-17 16:00N 49°00' W 123°08'0 0.2
2019-May-17 15:30N 49°00' W 123°08'815.2
2019-May-17 15:00N 48°54' W 123°15'714.0
2019-May-17 14:30N 48°48' W 123°20'714.7
2019-May-17 14:00N 48°41' W 123°25'0 0.0
2019-May-17 13:30N 48°41' W 123°25'0 0.0
2019-May-17 13:00N 48°41' W 123°25'0 0.0
2019-May-17 12:30N 48°41' W 123°25'0 0.0
2019-May-17 12:00N 48°41' W 123°25'0 0.0
2019-May-17 11:27N 48°41' W 123°25'0 0.0
2019-May-17 11:00N 48°41' W 123°25'0 0.0
2019-May-17 10:30N 48°41' W 123°25'0 0.0
2019-May-17 10:00N 48°41' W 123°25'0 0.0
2019-May-17 09:27N 48°41' W 123°25'0 0.0
2019-May-17 07:33N 48°41' W 123°25'0 0.0
2019-May-17 07:27N 48°41' W 123°25'0 0.0
2019-May-17 06:54N 48°41' W 123°25'0 0.0
2019-May-17 06:21N 48°41' W 123°25'0 0.0
2019-May-17 06:00N 48°41' W 123°25'0 0.1
2019-May-17 05:30N 48°41' W 123°25'714.3
2019-May-17 05:00N 48°48' W 123°21'714.4
2019-May-17 04:30N 48°55' W 123°16'815.7
2019-May-17 04:00N 49°00' W 123°08'0 0.8
2019-May-17 03:30N 49°00' W 123°08'919.0
2019-May-17 03:00N 48°53' W 123°18'510.9
2019-May-17 02:30N 48°48' W 123°21'713.7
2019-May-17 02:00N 48°41' W 123°25'0 0.0
2019-May-17 01:30N 48°41' W 123°25'714.6
2019-May-17 01:00N 48°48' W 123°21'917.3
2019-May-17 00:30N 48°56' W 123°15'612.8
2019-May-17 00:00N 49°00' W 123°08'1 1.4
2019-May-16 23:31N 48°60' W 123°08'1019.4
2019-May-16 23:01N 48°52' W 123°18'816.6
2019-May-16 22:30N 48°45' W 123°23'3 6.9
2019-May-16 22:00N 48°41' W 123°25'0 0.2
2019-May-16 21:30N 48°41' W 123°25'815.9
2019-May-16 21:00N 48°49' W 123°21'815.8
2019-May-16 20:30N 48°56' W 123°15'612.7
2019-May-16 20:00N 49°00' W 123°08'0 0.1
2019-May-16 19:31N 49°00' W 123°08'714.1
2019-May-16 19:00N 48°55' W 123°15'816.3
2019-May-16 18:30N 48°48' W 123°21'713.6
2019-May-16 18:00N 48°41' W 123°25'0 0.0
2019-May-16 17:30N 48°41' W 123°25'713.5
2019-May-16 17:00N 48°48' W 123°21'816.9
2019-May-16 16:30N 48°55' W 123°15'714.0
2019-May-16 16:01N 49°00' W 123°08'0 0.2
2019-May-16 15:31N 49°00' W 123°08'816.1
2019-May-16 15:01N 48°54' W 123°16'714.3
2019-May-16 14:31N 48°48' W 123°21'713.5
2019-May-16 14:00N 48°41' W 123°25'0 0.0
2019-May-16 13:30N 48°41' W 123°25'0 0.0
2019-May-16 12:58N 48°41' W 123°25'0 0.0
2019-May-16 12:28N 48°41' W 123°25'0 0.0
2019-May-16 11:58N 48°41' W 123°25'0 0.0
2019-May-16 11:28N 48°41' W 123°25'0 0.0
2019-May-16 10:58N 48°41' W 123°25'0 0.0
2019-May-16 10:28N 48°41' W 123°25'0 0.0
2019-May-16 09:58N 48°41' W 123°25'0 0.0
2019-May-16 09:28N 48°41' W 123°25'0 0.0
2019-May-16 08:58N 48°41' W 123°25'0 0.0
2019-May-16 08:25N 48°41' W 123°25'0 0.0
2019-May-16 07:58N 48°41' W 123°25'0 0.0
2019-May-16 07:28N 48°41' W 123°25'0 0.0
2019-May-16 06:55N 48°41' W 123°25'0 0.0
2019-May-16 06:28N 48°41' W 123°25'0 0.0
2019-May-16 06:00N 48°41' W 123°25'4 7.6
2019-May-16 05:30N 48°44' W 123°21'815.4
2019-May-16 05:01N 48°52' W 123°19'918.6
2019-May-16 04:30N 48°59' W 123°10'2 3.8
2019-May-16 04:00N 49°00' W 123°08'612.2
2019-May-16 03:30N 48°56' W 123°14'815.0
2019-May-16 03:00N 48°50' W 123°20'816.6
2019-May-16 02:31N 48°42' W 123°25'1 1.3
2019-May-16 02:00N 48°41' W 123°25'4 8.2
2019-May-16 01:31N 48°44' W 123°21'816.7
2019-May-16 01:01N 48°53' W 123°18'1019.7
2019-May-16 00:31N 49°00' W 123°08'0 0.7
2019-May-16 00:00N 49°00' W 123°08'511.0
2019-May-15 23:31N 48°56' W 123°13'816.1
2019-May-15 23:01N 48°50' W 123°21'816.8
2019-May-15 22:30N 48°42' W 123°26'1 1.7
2019-May-15 22:00N 48°41' W 123°25'4 7.9
2019-May-15 21:30N 48°44' W 123°21'815.7
2019-May-15 21:01N 48°52' W 123°18'816.4
2019-May-15 20:30N 48°59' W 123°12'3 5.9
2019-May-15 20:00N 49°00' W 123°08'2 3.6
2019-May-15 19:30N 48°59' W 123°09'1019.7
2019-May-15 19:00N 48°51' W 123°20'714.9
2019-May-15 18:31N 48°45' W 123°23'3 6.5
2019-May-15 18:00N 48°41' W 123°25'2 3.4
2019-May-15 17:30N 48°42' W 123°22'1019.4
2019-May-15 17:01N 48°51' W 123°21'815.1
2019-May-15 16:30N 48°57' W 123°13'5 9.6
2019-May-15 16:00N 49°00' W 123°08'0 0.5
2019-May-15 15:30N 49°00' W 123°08'918.5
2019-May-15 15:00N 48°53' W 123°17'612.8
2019-May-15 14:30N 48°47' W 123°21'612.5
2019-May-15 14:00N 48°41' W 123°25'0 0.0
2019-May-15 13:26N 48°41' W 123°25'0 0.0
2019-May-15 12:56N 48°41' W 123°25'0 0.0
2019-May-15 12:26N 48°41' W 123°25'0 0.0
2019-May-15 11:56N 48°41' W 123°25'0 0.0
2019-May-15 11:26N 48°41' W 123°25'0 0.0
2019-May-15 10:56N 48°41' W 123°25'0 0.0
2019-May-15 10:26N 48°41' W 123°25'0 0.0
2019-May-15 09:56N 48°41' W 123°25'0 0.0
2019-May-15 09:28N 48°41' W 123°25'0 0.0
2019-May-15 08:58N 48°41' W 123°25'0 0.0
2019-May-15 08:28N 48°41' W 123°25'0 0.0
2019-May-15 07:58N 48°41' W 123°25'0 0.0
2019-May-15 07:28N 48°41' W 123°25'0 0.0
2019-May-15 06:55N 48°41' W 123°25'0 0.0
2019-May-15 06:28N 48°41' W 123°25'0 0.0
2019-May-15 05:58N 48°41' W 123°25'3 6.0
2019-May-15 05:31N 48°43' W 123°21'917.7
2019-May-15 05:00N 48°52' W 123°20'918.6
2019-May-15 04:30N 48°59' W 123°11'2 4.8
2019-May-15 04:00N 49°00' W 123°08'510.6
2019-May-15 03:30N 48°56' W 123°13'816.7
2019-May-15 03:00N 48°49' W 123°20'816.1
2019-May-15 02:29N 48°42' W 123°25'0 0.8
2019-May-15 02:00N 48°41' W 123°25'2 4.7
2019-May-15 01:31N 48°42' W 123°22'918.8
2019-May-15 01:01N 48°52' W 123°20'713.9
2019-May-15 00:30N 48°57' W 123°13'5 9.5
2019-May-15 00:00N 49°00' W 123°08'0 0.3
2019-May-14 23:30N 49°00' W 123°08'918.9
2019-May-14 23:00N 48°53' W 123°17'815.4
2019-May-14 22:30N 48°46' W 123°22'5 9.8
2019-May-14 22:00N 48°41' W 123°25'0 0.3
2019-May-14 21:30N 48°41' W 123°25'815.8
2019-May-14 21:00N 48°49' W 123°21'816.7
2019-May-14 20:30N 48°57' W 123°16'612.7
2019-May-14 20:00N 49°00' W 123°08'0 0.2
2019-May-14 19:30N 49°00' W 123°08'917.5
2019-May-14 19:00N 48°54' W 123°17'816.5
2019-May-14 18:30N 48°46' W 123°21'510.3
2019-May-14 18:00N 48°41' W 123°25'0 0.5
2019-May-14 17:30N 48°41' W 123°24'816.8
2019-May-14 17:01N 48°49' W 123°21'815.9
2019-May-14 16:30N 48°56' W 123°14'611.7
2019-May-14 16:00N 49°00' W 123°08'0 0.0
2019-May-14 15:30N 49°00' W 123°08'815.2
2019-May-14 15:00N 48°55' W 123°15'815.1
2019-May-14 14:31N 48°48' W 123°21'714.0
2019-May-14 14:00N 48°41' W 123°25'0 0.0
2019-May-14 13:30N 48°41' W 123°25'0 0.0
2019-May-14 13:00N 48°41' W 123°25'0 0.0
2019-May-14 12:30N 48°41' W 123°25'0 0.0
2019-May-14 11:59N 48°41' W 123°25'0 0.0
2019-May-14 11:26N 48°41' W 123°25'0 0.0
2019-May-14 10:59N 48°41' W 123°25'0 0.0
2019-May-14 10:29N 48°41' W 123°25'0 0.0
2019-May-14 09:59N 48°41' W 123°25'0 0.0
2019-May-14 09:29N 48°41' W 123°25'0 0.0
2019-May-14 08:53N 48°41' W 123°25'0 0.0
2019-May-14 08:23N 48°41' W 123°25'0 0.0
2019-May-14 07:56N 48°41' W 123°25'0 0.0
2019-May-14 06:41N 48°41' W 123°25'0 0.0
2019-May-14 06:29N 48°41' W 123°25'0 0.0
2019-May-14 05:59N 48°41' W 123°25'0 0.0
2019-May-14 05:30N 48°41' W 123°25'612.6
2019-May-14 05:00N 48°47' W 123°21'815.4
2019-May-14 04:30N 48°54' W 123°17'816.6
2019-May-14 04:00N 49°00' W 123°08'0 0.0
2019-May-14 03:30N 49°00' W 123°08'816.4
2019-May-14 03:00N 48°54' W 123°16'816.6
2019-May-14 02:30N 48°47' W 123°21'611.2
2019-May-14 02:00N 48°41' W 123°25'1 2.1
2019-May-14 01:28N 48°42' W 123°23'918.8
2019-May-14 01:00N 48°50' W 123°21'815.3
2019-May-14 00:31N 48°56' W 123°14'611.4
2019-May-14 00:00N 49°00' W 123°08'0 0.2
2019-May-13 23:30N 49°00' W 123°08'918.5
2019-May-13 23:01N 48°53' W 123°17'815.4
2019-May-13 22:31N 48°46' W 123°21'510.3
2019-May-13 22:00N 48°41' W 123°25'0 0.2
2019-May-13 21:30N 48°41' W 123°25'815.4
2019-May-13 21:00N 48°49' W 123°21'714.6
2019-May-13 20:30N 48°55' W 123°16'714.6
2019-May-13 20:00N 49°00' W 123°08'0 0.1
2019-May-13 19:30N 49°00' W 123°08'714.6
2019-May-13 19:00N 48°55' W 123°15'917.0
2019-May-13 18:30N 48°47' W 123°21'612.7
2019-May-13 18:00N 48°41' W 123°25'0 0.0
2019-May-13 17:30N 48°41' W 123°25'713.8
2019-May-13 17:00N 48°48' W 123°21'815.9
2019-May-13 16:30N 48°55' W 123°16'815.0
2019-May-13 16:00N 49°00' W 123°08'0 0.0
2019-May-13 15:30N 49°00' W 123°08'816.3
2019-May-13 15:00N 48°54' W 123°16'815.4
2019-May-13 14:30N 48°47' W 123°20'612.7
2019-May-13 14:00N 48°41' W 123°25'0 0.0
2019-May-13 13:30N 48°41' W 123°25'0 0.0
2019-May-13 12:55N 48°41' W 123°25'0 0.0
2019-May-13 12:28N 48°41' W 123°25'0 0.0
2019-May-13 11:49N 48°41' W 123°25'0 0.0
2019-May-13 11:25N 48°41' W 123°25'0 0.0
2019-May-13 10:55N 48°41' W 123°25'0 0.0
2019-May-13 10:19N 48°41' W 123°25'0 0.0
2019-May-13 09:58N 48°41' W 123°25'0 0.0
2019-May-13 09:25N 48°41' W 123°25'0 0.0
2019-May-13 08:49N 48°41' W 123°25'0 0.0
2019-May-13 08:19N 48°41' W 123°25'0 0.0
2019-May-13 07:58N 48°41' W 123°25'0 0.0
2019-May-13 07:19N 48°41' W 123°25'0 0.0
2019-May-13 06:58N 48°41' W 123°25'0 0.0
2019-May-13 06:25N 48°41' W 123°25'0 0.0
2019-May-13 05:58N 48°41' W 123°25'0 0.0
2019-May-13 05:30N 48°41' W 123°25'612.3
2019-May-13 05:00N 48°47' W 123°21'815.5
2019-May-13 04:30N 48°54' W 123°17'816.9
2019-May-13 04:00N 49°00' W 123°08'0 0.1
2019-May-13 03:30N 49°00' W 123°08'816.1
2019-May-13 03:00N 48°54' W 123°16'714.9
2019-May-13 02:30N 48°47' W 123°21'713.3
2019-May-13 02:00N 48°41' W 123°25'0 0.0
2019-May-13 01:31N 48°41' W 123°25'815.1
2019-May-13 01:00N 48°49' W 123°21'815.8
2019-May-13 00:31N 48°55' W 123°15'713.4
2019-May-13 00:00N 49°00' W 123°08'0 0.0
2019-May-12 23:30N 49°00' W 123°08'816.5
2019-May-12 23:00N 48°54' W 123°16'714.8
2019-May-12 22:31N 48°47' W 123°21'613.0
2019-May-12 22:01N 48°41' W 123°25'0 0.0
2019-May-12 21:30N 48°41' W 123°25'713.4
2019-May-12 21:00N 48°48' W 123°21'917.3
2019-May-12 20:30N 48°55' W 123°15'713.7
2019-May-12 20:00N 49°00' W 123°08'0 0.2
2019-May-12 19:30N 49°00' W 123°08'918.6
2019-May-12 19:00N 48°53' W 123°17'816.3
2019-May-12 18:31N 48°46' W 123°22'5 9.4
2019-May-12 18:00N 48°41' W 123°25'0 0.2
2019-May-12 17:30N 48°41' W 123°25'815.8
2019-May-12 17:00N 48°49' W 123°21'713.8
2019-May-12 16:30N 48°55' W 123°16'714.8
2019-May-12 16:01N 49°00' W 123°08'0 0.0
2019-May-12 15:31N 49°00' W 123°08'714.2
2019-May-12 15:00N 48°55' W 123°15'816.0
2019-May-12 14:30N 48°48' W 123°21'714.0
2019-May-12 14:00N 48°41' W 123°25'0 0.0
2019-May-12 13:30N 48°41' W 123°25'0 0.0
2019-May-12 13:00N 48°41' W 123°25'0 0.0
2019-May-12 12:30N 48°41' W 123°25'0 0.0
2019-May-12 11:56N 48°41' W 123°25'0 0.0
2019-May-12 11:26N 48°41' W 123°25'0 0.0
2019-May-12 10:56N 48°41' W 123°25'0 0.0
2019-May-12 10:26N 48°41' W 123°25'0 0.0
2019-May-12 09:56N 48°41' W 123°25'0 0.0
2019-May-12 09:26N 48°41' W 123°25'0 0.0
2019-May-12 08:56N 48°41' W 123°25'0 0.0
2019-May-12 08:26N 48°41' W 123°25'0 0.0
2019-May-12 07:56N 48°41' W 123°25'0 0.0
2019-May-12 07:26N 48°41' W 123°25'0 0.0
2019-May-12 06:56N 48°41' W 123°25'0 0.0
2019-May-12 06:26N 48°41' W 123°25'0 0.0
2019-May-12 05:56N 48°41' W 123°25'0 0.0
2019-May-12 05:28N 48°41' W 123°25'612.2
2019-May-12 05:00N 48°46' W 123°21'815.9
2019-May-12 04:30N 48°54' W 123°17'917.6
2019-May-12 04:00N 49°00' W 123°08'0 0.1
2019-May-12 03:30N 49°00' W 123°08'612.1
2019-May-12 03:00N 48°56' W 123°14'917.2
2019-May-12 02:30N 48°49' W 123°21'815.2
2019-May-12 02:00N 48°41' W 123°25'0 0.0
2019-May-12 01:30N 48°41' W 123°25'713.7
2019-May-12 01:01N 48°48' W 123°21'815.7
2019-May-12 00:31N 48°55' W 123°16'815.4
2019-May-12 00:00N 49°00' W 123°08'0 0.1
2019-May-11 23:30N 49°00' W 123°08'815.8
2019-May-11 23:00N 48°54' W 123°15'815.2
2019-May-11 22:30N 48°48' W 123°21'713.4
2019-May-11 22:00N 48°41' W 123°25'0 0.0
2019-May-11 21:30N 48°41' W 123°25'714.4
2019-May-11 21:00N 48°48' W 123°20'714.8
2019-May-11 20:30N 48°55' W 123°16'815.2
2019-May-11 20:00N 49°00' W 123°08'0 0.0
2019-May-11 19:30N 49°00' W 123°08'714.1
2019-May-11 19:00N 48°55' W 123°15'815.5
2019-May-11 18:30N 48°48' W 123°21'714.7
2019-May-11 18:00N 48°41' W 123°25'0 0.0
2019-May-11 17:30N 48°41' W 123°25'713.2
2019-May-11 17:00N 48°47' W 123°21'815.5
2019-May-11 16:30N 48°55' W 123°16'816.0
2019-May-11 16:00N 49°00' W 123°08'0 0.1
2019-May-11 15:31N 49°00' W 123°08'714.3
2019-May-11 15:00N 48°55' W 123°16'816.8
2019-May-11 14:30N 48°48' W 123°21'713.2
2019-May-11 14:00N 48°41' W 123°25'0 0.0
2019-May-11 13:30N 48°41' W 123°25'0 0.0
2019-May-11 12:39N 48°41' W 123°25'0 0.0
2019-May-11 12:24N 48°41' W 123°25'0 0.0
2019-May-11 11:18N 48°41' W 123°25'0 0.0
2019-May-11 11:00N 48°41' W 123°25'0 0.0
2019-May-11 10:30N 48°41' W 123°25'0 0.0
2019-May-11 09:57N 48°41' W 123°25'0 0.0
2019-May-11 09:18N 48°41' W 123°25'0 0.0
2019-May-11 08:24N 48°41' W 123°25'0 0.0
2019-May-11 07:24N 48°41' W 123°25'0 0.0
2019-May-11 07:00N 48°41' W 123°25'0 0.0
2019-May-11 06:30N 48°41' W 123°25'0 0.0
2019-May-11 05:48N 48°41' W 123°25'0 0.0
2019-May-11 05:30N 48°41' W 123°25'612.6
2019-May-11 05:01N 48°47' W 123°21'815.2
2019-May-11 04:31N 48°54' W 123°17'917.1
2019-May-11 04:00N 49°00' W 123°08'0 0.0
2019-May-11 03:30N 49°00' W 123°08'714.5
2019-May-11 03:00N 48°55' W 123°15'917.4
2019-May-11 02:31N 48°47' W 123°21'612.3
2019-May-11 02:00N 48°41' W 123°25'1 1.5
2019-May-11 01:28N 48°42' W 123°24'817.8
2019-May-11 01:00N 48°49' W 123°21'714.9
2019-May-11 00:30N 48°56' W 123°15'612.8
2019-May-11 00:00N 49°00' W 123°08'0 0.2
2019-May-10 23:30N 49°00' W 123°08'917.7
2019-May-10 23:01N 48°53' W 123°17'815.4
2019-May-10 22:30N 48°46' W 123°21'510.9
2019-May-10 22:00N 48°41' W 123°25'0 0.2
2019-May-10 21:31N 48°41' W 123°25'816.4
2019-May-10 21:01N 48°49' W 123°21'917.6
2019-May-10 20:30N 48°57' W 123°14'510.8
2019-May-10 20:01N 49°00' W 123°08'0 0.4
2019-May-10 19:31N 49°00' W 123°08'917.8
2019-May-10 19:00N 48°53' W 123°17'713.7
2019-May-10 18:30N 48°47' W 123°21'612.4
2019-May-10 18:00N 48°41' W 123°25'0 0.0
2019-May-10 17:30N 48°41' W 123°25'714.1
2019-May-10 17:00N 48°48' W 123°21'  

Dump ship's entire track history